sensor_id;sensor_type;location;lat;lon;timestamp;P1;durP1;ratioP1;P2;durP2;ratioP2
12970;SDS011;6550;48.650;8.774;2023-04-30T00:00:35;3.20;;;2.73;;
12970;SDS011;6550;48.650;8.774;2023-04-30T00:03:04;5.03;;;2.93;;
12970;SDS011;6550;48.650;8.774;2023-04-30T00:05:33;4.97;;;2.90;;
12970;SDS011;6550;48.650;8.774;2023-04-30T00:08:00;4.37;;;3.03;;
12970;SDS011;6550;48.650;8.774;2023-04-30T00:10:29;6.67;;;2.87;;
12970;SDS011;6550;48.650;8.774;2023-04-30T00:12:58;4.68;;;2.75;;
12970;SDS011;6550;48.650;8.774;2023-04-30T00:15:25;4.70;;;2.90;;
12970;SDS011;6550;48.650;8.774;2023-04-30T00:17:52;6.70;;;2.93;;
12970;SDS011;6550;48.650;8.774;2023-04-30T00:20:21;5.37;;;2.90;;
12970;SDS011;6550;48.650;8.774;2023-04-30T00:22:48;5.90;;;3.10;;
12970;SDS011;6550;48.650;8.774;2023-04-30T00:25:20;6.90;;;2.97;;
12970;SDS011;6550;48.650;8.774;2023-04-30T00:27:49;2.80;;;2.60;;
12970;SDS011;6550;48.650;8.774;2023-04-30T00:30:17;12.30;;;3.67;;
12970;SDS011;6550;48.650;8.774;2023-04-30T00:32:46;3.10;;;2.80;;
12970;SDS011;6550;48.650;8.774;2023-04-30T00:35:13;2.43;;;2.23;;
12970;SDS011;6550;48.650;8.774;2023-04-30T00:37:39;7.93;;;2.60;;
12970;SDS011;6550;48.650;8.774;2023-04-30T00:40:07;4.13;;;2.40;;
12970;SDS011;6550;48.650;8.774;2023-04-30T00:42:34;13.67;;;2.60;;
12970;SDS011;6550;48.650;8.774;2023-04-30T00:45:03;4.30;;;2.63;;
12970;SDS011;6550;48.650;8.774;2023-04-30T00:47:30;5.40;;;2.80;;
12970;SDS011;6550;48.650;8.774;2023-04-30T00:50:02;4.13;;;2.27;;
12970;SDS011;6550;48.650;8.774;2023-04-30T00:52:31;9.00;;;2.57;;
12970;SDS011;6550;48.650;8.774;2023-04-30T00:55:00;8.57;;;2.70;;
12970;SDS011;6550;48.650;8.774;2023-04-30T00:57:27;2.73;;;2.30;;
12970;SDS011;6550;48.650;8.774;2023-04-30T00:59:56;10.87;;;2.80;;
12970;SDS011;6550;48.650;8.774;2023-04-30T01:02:23;2.63;;;2.43;;
12970;SDS011;6550;48.650;8.774;2023-04-30T01:04:56;3.67;;;2.47;;
12970;SDS011;6550;48.650;8.774;2023-04-30T01:07:26;7.43;;;2.93;;
12970;SDS011;6550;48.650;8.774;2023-04-30T01:09:53;2.83;;;2.50;;
12970;SDS011;6550;48.650;8.774;2023-04-30T01:12:25;2.50;;;2.30;;
12970;SDS011;6550;48.650;8.774;2023-04-30T01:18:08;2.90;;;2.30;;
12970;SDS011;6550;48.650;8.774;2023-04-30T01:20:52;4.80;;;2.58;;
12970;SDS011;6550;48.650;8.774;2023-04-30T01:26:10;5.20;;;2.50;;
12970;SDS011;6550;48.650;8.774;2023-04-30T01:28:43;6.30;;;2.70;;
12970;SDS011;6550;48.650;8.774;2023-04-30T01:31:12;3.33;;;2.80;;
12970;SDS011;6550;48.650;8.774;2023-04-30T01:33:39;4.27;;;2.40;;
12970;SDS011;6550;48.650;8.774;2023-04-30T01:36:16;2.70;;;2.50;;
12970;SDS011;6550;48.650;8.774;2023-04-30T01:41:24;8.60;;;2.80;;
12970;SDS011;6550;48.650;8.774;2023-04-30T01:47:01;5.23;;;2.37;;
12970;SDS011;6550;48.650;8.774;2023-04-30T01:52:15;5.33;;;2.67;;
12970;SDS011;6550;48.650;8.774;2023-04-30T01:57:26;3.53;;;2.70;;
12970;SDS011;6550;48.650;8.774;2023-04-30T01:59:57;2.60;;;2.40;;
12970;SDS011;6550;48.650;8.774;2023-04-30T02:02:27;3.17;;;2.87;;
12970;SDS011;6550;48.650;8.774;2023-04-30T02:04:56;3.13;;;2.60;;
12970;SDS011;6550;48.650;8.774;2023-04-30T02:07:36;3.13;;;2.60;;
12970;SDS011;6550;48.650;8.774;2023-04-30T02:10:09;3.50;;;3.00;;
12970;SDS011;6550;48.650;8.774;2023-04-30T02:12:39;3.10;;;2.80;;
12970;SDS011;6550;48.650;8.774;2023-04-30T02:15:06;3.90;;;3.17;;
12970;SDS011;6550;48.650;8.774;2023-04-30T02:17:33;4.23;;;3.30;;
12970;SDS011;6550;48.650;8.774;2023-04-30T02:20:00;3.40;;;3.10;;
12970;SDS011;6550;48.650;8.774;2023-04-30T02:22:28;3.67;;;3.37;;
12970;SDS011;6550;48.650;8.774;2023-04-30T02:24:57;3.50;;;3.17;;
12970;SDS011;6550;48.650;8.774;2023-04-30T02:27:29;3.53;;;3.23;;
12970;SDS011;6550;48.650;8.774;2023-04-30T02:29:59;3.90;;;3.50;;
12970;SDS011;6550;48.650;8.774;2023-04-30T02:32:26;3.67;;;3.37;;
12970;SDS011;6550;48.650;8.774;2023-04-30T02:34:55;4.90;;;4.10;;
12970;SDS011;6550;48.650;8.774;2023-04-30T02:37:22;5.00;;;3.93;;
12970;SDS011;6550;48.650;8.774;2023-04-30T02:39:49;4.10;;;3.70;;
12970;SDS011;6550;48.650;8.774;2023-04-30T02:42:19;5.47;;;4.00;;
12970;SDS011;6550;48.650;8.774;2023-04-30T02:44:46;4.60;;;3.87;;
12970;SDS011;6550;48.650;8.774;2023-04-30T02:47:13;6.47;;;4.40;;
12970;SDS011;6550;48.650;8.774;2023-04-30T02:49:40;5.80;;;4.73;;
12970;SDS011;6550;48.650;8.774;2023-04-30T02:52:07;4.03;;;3.70;;
12970;SDS011;6550;48.650;8.774;2023-04-30T02:54:36;4.77;;;3.90;;
12970;SDS011;6550;48.650;8.774;2023-04-30T02:57:03;4.67;;;4.20;;
12970;SDS011;6550;48.650;8.774;2023-04-30T02:59:30;5.00;;;4.50;;
12970;SDS011;6550;48.650;8.774;2023-04-30T03:02:02;4.17;;;3.77;;
12970;SDS011;6550;48.650;8.774;2023-04-30T03:04:29;5.10;;;4.60;;
12970;SDS011;6550;48.650;8.774;2023-04-30T03:06:58;6.28;;;4.43;;
12970;SDS011;6550;48.650;8.774;2023-04-30T03:09:25;4.70;;;4.20;;
12970;SDS011;6550;48.650;8.774;2023-04-30T03:11:54;6.47;;;4.80;;
12970;SDS011;6550;48.650;8.774;2023-04-30T03:14:21;4.30;;;3.90;;
12970;SDS011;6550;48.650;8.774;2023-04-30T03:16:48;16.43;;;4.53;;
12970;SDS011;6550;48.650;8.774;2023-04-30T03:19:18;10.07;;;5.00;;
12970;SDS011;6550;48.650;8.774;2023-04-30T03:21:53;19.03;;;4.53;;
12970;SDS011;6550;48.650;8.774;2023-04-30T03:24:20;10.57;;;5.53;;
12970;SDS011;6550;48.650;8.774;2023-04-30T03:26:46;9.77;;;5.07;;
12970;SDS011;6550;48.650;8.774;2023-04-30T03:29:13;9.97;;;4.83;;
12970;SDS011;6550;48.650;8.774;2023-04-30T03:31:42;7.97;;;4.90;;
12970;SDS011;6550;48.650;8.774;2023-04-30T03:34:09;5.27;;;4.70;;
12970;SDS011;6550;48.650;8.774;2023-04-30T03:36:36;6.87;;;5.10;;
12970;SDS011;6550;48.650;8.774;2023-04-30T03:39:05;4.93;;;4.40;;
12970;SDS011;6550;48.650;8.774;2023-04-30T03:41:34;6.93;;;4.88;;
12970;SDS011;6550;48.650;8.774;2023-04-30T03:44:01;5.00;;;4.50;;
12970;SDS011;6550;48.650;8.774;2023-04-30T03:46:28;5.70;;;5.00;;
12970;SDS011;6550;48.650;8.774;2023-04-30T03:49:00;5.93;;;4.67;;
12970;SDS011;6550;48.650;8.774;2023-04-30T03:51:26;14.63;;;5.30;;
12970;SDS011;6550;48.650;8.774;2023-04-30T03:53:53;10.77;;;5.10;;
12970;SDS011;6550;48.650;8.774;2023-04-30T03:56:20;12.40;;;5.30;;
12970;SDS011;6550;48.650;8.774;2023-04-30T03:58:50;11.33;;;5.50;;
12970;SDS011;6550;48.650;8.774;2023-04-30T04:01:16;12.63;;;5.63;;
12970;SDS011;6550;48.650;8.774;2023-04-30T04:03:43;17.03;;;6.17;;
12970;SDS011;6550;48.650;8.774;2023-04-30T04:06:10;9.80;;;5.70;;
12970;SDS011;6550;48.650;8.774;2023-04-30T04:08:39;7.87;;;5.50;;
12970;SDS011;6550;48.650;8.774;2023-04-30T04:11:08;9.50;;;5.83;;
12970;SDS011;6550;48.650;8.774;2023-04-30T04:13:36;8.33;;;5.63;;
12970;SDS011;6550;48.650;8.774;2023-04-30T04:16:02;8.83;;;5.10;;
12970;SDS011;6550;48.650;8.774;2023-04-30T04:18:29;8.67;;;5.87;;
12970;SDS011;6550;48.650;8.774;2023-04-30T04:20:56;6.77;;;5.70;;
12970;SDS011;6550;48.650;8.774;2023-04-30T04:23:23;7.03;;;5.80;;
12970;SDS011;6550;48.650;8.774;2023-04-30T04:25:49;6.20;;;5.47;;
12970;SDS011;6550;48.650;8.774;2023-04-30T04:28:19;6.00;;;5.40;;
12970;SDS011;6550;48.650;8.774;2023-04-30T04:30:50;6.57;;;5.80;;
12970;SDS011;6550;48.650;8.774;2023-04-30T04:33:18;7.40;;;5.53;;
12970;SDS011;6550;48.650;8.774;2023-04-30T04:35:47;10.97;;;5.70;;
12970;SDS011;6550;48.650;8.774;2023-04-30T04:38:14;9.40;;;5.57;;
12970;SDS011;6550;48.650;8.774;2023-04-30T04:40:49;5.73;;;5.23;;
12970;SDS011;6550;48.650;8.774;2023-04-30T04:43:19;7.17;;;5.87;;
12970;SDS011;6550;48.650;8.774;2023-04-30T04:45:49;5.93;;;5.10;;
12970;SDS011;6550;48.650;8.774;2023-04-30T04:48:17;6.43;;;5.47;;
12970;SDS011;6550;48.650;8.774;2023-04-30T04:50:44;7.00;;;5.85;;
12970;SDS011;6550;48.650;8.774;2023-04-30T04:53:10;6.70;;;6.00;;
12970;SDS011;6550;48.650;8.774;2023-04-30T04:55:38;7.53;;;5.57;;
12970;SDS011;6550;48.650;8.774;2023-04-30T04:58:07;6.40;;;5.77;;
12970;SDS011;6550;48.650;8.774;2023-04-30T05:00:37;12.00;;;5.87;;
12970;SDS011;6550;48.650;8.774;2023-04-30T05:03:04;7.00;;;5.70;;
12970;SDS011;6550;48.650;8.774;2023-04-30T05:05:33;6.00;;;5.50;;
12970;SDS011;6550;48.650;8.774;2023-04-30T05:08:00;7.83;;;5.17;;
12970;SDS011;6550;48.650;8.774;2023-04-30T05:10:29;6.00;;;5.20;;
12970;SDS011;6550;48.650;8.774;2023-04-30T05:13:00;6.23;;;5.07;;
12970;SDS011;6550;48.650;8.774;2023-04-30T05:15:26;5.67;;;4.83;;
12970;SDS011;6550;48.650;8.774;2023-04-30T05:17:53;5.93;;;5.13;;
12970;SDS011;6550;48.650;8.774;2023-04-30T05:20:20;5.60;;;5.07;;
12970;SDS011;6550;48.650;8.774;2023-04-30T05:22:47;5.80;;;5.07;;
12970;SDS011;6550;48.650;8.774;2023-04-30T05:25:17;9.87;;;5.40;;
12970;SDS011;6550;48.650;8.774;2023-04-30T05:27:43;5.10;;;4.60;;
12970;SDS011;6550;48.650;8.774;2023-04-30T05:30:10;5.77;;;5.27;;
12970;SDS011;6550;48.650;8.774;2023-04-30T05:32:37;5.53;;;5.03;;
12970;SDS011;6550;48.650;8.774;2023-04-30T05:35:04;6.17;;;5.33;;
12970;SDS011;6550;48.650;8.774;2023-04-30T05:37:31;5.43;;;4.93;;
12970;SDS011;6550;48.650;8.774;2023-04-30T05:39:58;6.10;;;5.50;;
12970;SDS011;6550;48.650;8.774;2023-04-30T05:42:25;6.60;;;5.67;;
12970;SDS011;6550;48.650;8.774;2023-04-30T05:44:56;8.17;;;5.40;;
12970;SDS011;6550;48.650;8.774;2023-04-30T05:47:23;6.53;;;5.27;;
12970;SDS011;6550;48.650;8.774;2023-04-30T05:49:50;6.83;;;6.03;;
12970;SDS011;6550;48.650;8.774;2023-04-30T05:52:16;9.93;;;5.97;;
12970;SDS011;6550;48.650;8.774;2023-04-30T05:54:43;8.13;;;5.77;;
12970;SDS011;6550;48.650;8.774;2023-04-30T05:57:11;9.33;;;5.43;;
12970;SDS011;6550;48.650;8.774;2023-04-30T05:59:38;12.07;;;5.40;;
12970;SDS011;6550;48.650;8.774;2023-04-30T06:02:07;7.75;;;5.75;;
12970;SDS011;6550;48.650;8.774;2023-04-30T06:04:34;7.10;;;5.10;;
12970;SDS011;6550;48.650;8.774;2023-04-30T06:07:04;7.03;;;5.17;;
12970;SDS011;6550;48.650;8.774;2023-04-30T06:09:31;8.90;;;5.20;;
12970;SDS011;6550;48.650;8.774;2023-04-30T06:11:57;22.87;;;6.27;;
12970;SDS011;6550;48.650;8.774;2023-04-30T06:14:24;11.73;;;5.63;;
12970;SDS011;6550;48.650;8.774;2023-04-30T06:16:53;11.17;;;4.97;;
12970;SDS011;6550;48.650;8.774;2023-04-30T06:19:21;6.77;;;5.90;;
12970;SDS011;6550;48.650;8.774;2023-04-30T06:21:48;7.30;;;5.60;;
12970;SDS011;6550;48.650;8.774;2023-04-30T06:24:14;8.60;;;5.80;;
12970;SDS011;6550;48.650;8.774;2023-04-30T06:26:46;17.17;;;6.50;;
12970;SDS011;6550;48.650;8.774;2023-04-30T06:29:13;14.63;;;6.10;;
12970;SDS011;6550;48.650;8.774;2023-04-30T06:31:42;8.87;;;6.50;;
12970;SDS011;6550;48.650;8.774;2023-04-30T06:34:11;10.90;;;6.00;;
12970;SDS011;6550;48.650;8.774;2023-04-30T06:36:38;13.27;;;5.83;;
12970;SDS011;6550;48.650;8.774;2023-04-30T06:39:04;10.17;;;5.93;;
12970;SDS011;6550;48.650;8.774;2023-04-30T06:41:31;7.47;;;6.00;;
12970;SDS011;6550;48.650;8.774;2023-04-30T06:43:58;8.67;;;5.63;;
12970;SDS011;6550;48.650;8.774;2023-04-30T06:46:28;9.60;;;6.00;;
12970;SDS011;6550;48.650;8.774;2023-04-30T06:48:54;8.37;;;5.80;;
12970;SDS011;6550;48.650;8.774;2023-04-30T06:51:26;16.97;;;5.83;;
12970;SDS011;6550;48.650;8.774;2023-04-30T06:53:53;10.43;;;6.10;;
12970;SDS011;6550;48.650;8.774;2023-04-30T06:56:20;7.03;;;5.03;;
12970;SDS011;6550;48.650;8.774;2023-04-30T06:58:50;8.88;;;5.70;;
12970;SDS011;6550;48.650;8.774;2023-04-30T07:01:17;8.30;;;6.07;;
12970;SDS011;6550;48.650;8.774;2023-04-30T07:03:46;11.87;;;5.63;;
12970;SDS011;6550;48.650;8.774;2023-04-30T07:06:13;8.60;;;6.17;;
12970;SDS011;6550;48.650;8.774;2023-04-30T07:08:45;9.17;;;6.00;;
12970;SDS011;6550;48.650;8.774;2023-04-30T07:11:14;10.40;;;5.72;;
12970;SDS011;6550;48.650;8.774;2023-04-30T07:13:40;7.43;;;5.47;;
12970;SDS011;6550;48.650;8.774;2023-04-30T07:16:09;5.63;;;5.13;;
12970;SDS011;6550;48.650;8.774;2023-04-30T07:18:36;5.70;;;5.20;;
12970;SDS011;6550;48.650;8.774;2023-04-30T07:21:06;9.23;;;5.37;;
12970;SDS011;6550;48.650;8.774;2023-04-30T07:23:35;6.20;;;5.60;;
12970;SDS011;6550;48.650;8.774;2023-04-30T07:26:02;6.27;;;5.20;;
12970;SDS011;6550;48.650;8.774;2023-04-30T07:28:29;6.07;;;5.47;;
12970;SDS011;6550;48.650;8.774;2023-04-30T07:30:55;6.20;;;5.50;;
12970;SDS011;6550;48.650;8.774;2023-04-30T07:33:25;7.60;;;5.32;;
12970;SDS011;6550;48.650;8.774;2023-04-30T07:35:55;7.77;;;4.87;;
12970;SDS011;6550;48.650;8.774;2023-04-30T07:38:24;5.40;;;4.40;;
12970;SDS011;6550;48.650;8.774;2023-04-30T07:40:57;9.07;;;4.77;;
12970;SDS011;6550;48.650;8.774;2023-04-30T07:43:26;6.47;;;4.67;;
12970;SDS011;6550;48.650;8.774;2023-04-30T07:45:57;9.20;;;4.70;;
12970;SDS011;6550;48.650;8.774;2023-04-30T07:48:24;9.23;;;4.13;;
12970;SDS011;6550;48.650;8.774;2023-04-30T07:50:51;4.77;;;3.80;;
12970;SDS011;6550;48.650;8.774;2023-04-30T07:53:20;4.27;;;3.63;;
12970;SDS011;6550;48.650;8.774;2023-04-30T07:55:50;4.20;;;3.80;;
12970;SDS011;6550;48.650;8.774;2023-04-30T07:58:16;4.03;;;3.57;;
12970;SDS011;6550;48.650;8.774;2023-04-30T08:00:46;3.80;;;3.50;;
12970;SDS011;6550;48.650;8.774;2023-04-30T08:03:13;3.23;;;3.00;;
12970;SDS011;6550;48.650;8.774;2023-04-30T08:05:40;4.33;;;3.87;;
12970;SDS011;6550;48.650;8.774;2023-04-30T08:08:09;3.90;;;3.60;;
12970;SDS011;6550;48.650;8.774;2023-04-30T08:10:35;4.18;;;3.42;;
12970;SDS011;6550;48.650;8.774;2023-04-30T08:13:03;3.47;;;3.17;;
12970;SDS011;6550;48.650;8.774;2023-04-30T08:15:32;4.20;;;2.73;;
12970;SDS011;6550;48.650;8.774;2023-04-30T08:17:59;3.00;;;2.70;;
12970;SDS011;6550;48.650;8.774;2023-04-30T08:20:26;4.73;;;3.30;;
12970;SDS011;6550;48.650;8.774;2023-04-30T08:22:53;3.60;;;2.80;;
12970;SDS011;6550;48.650;8.774;2023-04-30T08:25:22;2.87;;;2.30;;
12970;SDS011;6550;48.650;8.774;2023-04-30T08:27:53;2.47;;;2.23;;
12970;SDS011;6550;48.650;8.774;2023-04-30T08:30:21;2.63;;;2.20;;
12970;SDS011;6550;48.650;8.774;2023-04-30T08:32:47;2.83;;;2.20;;
12970;SDS011;6550;48.650;8.774;2023-04-30T08:35:15;2.70;;;2.50;;
12970;SDS011;6550;48.650;8.774;2023-04-30T08:37:42;3.27;;;2.60;;
12970;SDS011;6550;48.650;8.774;2023-04-30T08:40:09;4.93;;;3.20;;
12970;SDS011;6550;48.650;8.774;2023-04-30T08:42:37;3.40;;;3.10;;
12970;SDS011;6550;48.650;8.774;2023-04-30T08:45:10;6.93;;;3.33;;
12970;SDS011;6550;48.650;8.774;2023-04-30T08:47:39;3.60;;;3.00;;
12970;SDS011;6550;48.650;8.774;2023-04-30T08:50:07;3.30;;;3.03;;
12970;SDS011;6550;48.650;8.774;2023-04-30T08:52:34;3.17;;;2.87;;
12970;SDS011;6550;48.650;8.774;2023-04-30T08:55:04;4.50;;;2.70;;
12970;SDS011;6550;48.650;8.774;2023-04-30T08:57:34;4.17;;;2.53;;
12970;SDS011;6550;48.650;8.774;2023-04-30T09:00:02;3.53;;;2.33;;
12970;SDS011;6550;48.650;8.774;2023-04-30T09:02:31;4.25;;;3.05;;
12970;SDS011;6550;48.650;8.774;2023-04-30T09:05:01;4.43;;;3.53;;
12970;SDS011;6550;48.650;8.774;2023-04-30T09:07:28;5.87;;;2.43;;
12970;SDS011;6550;48.650;8.774;2023-04-30T09:09:58;3.90;;;2.40;;
12970;SDS011;6550;48.650;8.774;2023-04-30T09:12:29;2.40;;;2.20;;
12970;SDS011;6550;48.650;8.774;2023-04-30T09:15:00;4.50;;;2.63;;
12970;SDS011;6550;48.650;8.774;2023-04-30T09:17:31;4.40;;;2.40;;
12970;SDS011;6550;48.650;8.774;2023-04-30T09:20:07;5.17;;;2.30;;
12970;SDS011;6550;48.650;8.774;2023-04-30T09:22:35;7.67;;;2.40;;
12970;SDS011;6550;48.650;8.774;2023-04-30T09:25:06;11.50;;;2.53;;
12970;SDS011;6550;48.650;8.774;2023-04-30T09:27:36;6.90;;;2.43;;
12970;SDS011;6550;48.650;8.774;2023-04-30T09:30:03;6.17;;;2.40;;
12970;SDS011;6550;48.650;8.774;2023-04-30T09:32:33;6.30;;;2.03;;
12970;SDS011;6550;48.650;8.774;2023-04-30T09:34:59;7.90;;;2.00;;
12970;SDS011;6550;48.650;8.774;2023-04-30T09:37:36;3.77;;;2.07;;
12970;SDS011;6550;48.650;8.774;2023-04-30T09:40:03;10.25;;;2.35;;
12970;SDS011;6550;48.650;8.774;2023-04-30T09:42:31;5.73;;;2.03;;
12970;SDS011;6550;48.650;8.774;2023-04-30T09:44:57;14.73;;;2.50;;
12970;SDS011;6550;48.650;8.774;2023-04-30T09:47:26;13.13;;;2.47;;
12970;SDS011;6550;48.650;8.774;2023-04-30T09:49:59;12.90;;;2.43;;
12970;SDS011;6550;48.650;8.774;2023-04-30T09:52:29;8.73;;;2.43;;
12970;SDS011;6550;48.650;8.774;2023-04-30T09:54:56;6.20;;;2.23;;
12970;SDS011;6550;48.650;8.774;2023-04-30T09:57:24;7.83;;;2.60;;
12970;SDS011;6550;48.650;8.774;2023-04-30T09:59:52;4.90;;;2.77;;
12970;SDS011;6550;48.650;8.774;2023-04-30T10:02:20;4.07;;;2.60;;
12970;SDS011;6550;48.650;8.774;2023-04-30T10:04:52;5.67;;;2.80;;
12970;SDS011;6550;48.650;8.774;2023-04-30T10:07:21;4.70;;;2.80;;
12970;SDS011;6550;48.650;8.774;2023-04-30T10:15:24;2.67;;;2.47;;
12970;SDS011;6550;48.650;8.774;2023-04-30T10:17:59;2.63;;;2.42;;
12970;SDS011;6550;48.650;8.774;2023-04-30T10:20:30;4.17;;;2.27;;
12970;SDS011;6550;48.650;8.774;2023-04-30T10:23:00;17.77;;;3.37;;
12970;SDS011;6550;48.650;8.774;2023-04-30T10:25:27;32.07;;;3.50;;
12970;SDS011;6550;48.650;8.774;2023-04-30T10:27:54;21.47;;;3.00;;
12970;SDS011;6550;48.650;8.774;2023-04-30T10:30:24;11.10;;;2.53;;
12970;SDS011;6550;48.650;8.774;2023-04-30T10:32:55;8.33;;;2.57;;
12970;SDS011;6550;48.650;8.774;2023-04-30T10:36:01;4.23;;;2.30;;
12970;SDS011;6550;48.650;8.774;2023-04-30T10:38:31;10.57;;;2.60;;
12970;SDS011;6550;48.650;8.774;2023-04-30T10:40:59;32.37;;;3.60;;
12970;SDS011;6550;48.650;8.774;2023-04-30T10:43:28;56.87;;;5.00;;
12970;SDS011;6550;48.650;8.774;2023-04-30T10:45:58;21.27;;;3.37;;
12970;SDS011;6550;48.650;8.774;2023-04-30T10:48:25;17.07;;;3.23;;
12970;SDS011;6550;48.650;8.774;2023-04-30T10:50:56;42.13;;;4.10;;
12970;SDS011;6550;48.650;8.774;2023-04-30T10:53:24;45.63;;;4.43;;
12970;SDS011;6550;48.650;8.774;2023-04-30T10:55:56;43.03;;;5.70;;
12970;SDS011;6550;48.650;8.774;2023-04-30T11:00:59;88.77;;;5.40;;
12970;SDS011;6550;48.650;8.774;2023-04-30T11:03:33;66.30;;;5.00;;
12970;SDS011;6550;48.650;8.774;2023-04-30T11:06:06;13.70;;;3.30;;
12970;SDS011;6550;48.650;8.774;2023-04-30T11:08:46;23.73;;;3.13;;
12970;SDS011;6550;48.650;8.774;2023-04-30T11:11:17;46.53;;;3.73;;
12970;SDS011;6550;48.650;8.774;2023-04-30T11:13:59;22.93;;;2.90;;
12970;SDS011;6550;48.650;8.774;2023-04-30T11:16:32;28.43;;;4.33;;
12970;SDS011;6550;48.650;8.774;2023-04-30T11:19:10;21.37;;;3.30;;
12970;SDS011;6550;48.650;8.774;2023-04-30T11:21:39;17.33;;;2.80;;
12970;SDS011;6550;48.650;8.774;2023-04-30T11:25:08;12.43;;;2.20;;
12970;SDS011;6550;48.650;8.774;2023-04-30T11:27:22;8.03;;;2.20;;
12970;SDS011;6550;48.650;8.774;2023-04-30T11:29:53;13.10;;;2.80;;
12970;SDS011;6550;48.650;8.774;2023-04-30T11:32:24;10.53;;;2.03;;
12970;SDS011;6550;48.650;8.774;2023-04-30T11:34:53;12.83;;;3.00;;
12970;SDS011;6550;48.650;8.774;2023-04-30T11:37:20;28.53;;;3.23;;
12970;SDS011;6550;48.650;8.774;2023-04-30T11:39:59;7.77;;;1.87;;
12970;SDS011;6550;48.650;8.774;2023-04-30T11:42:31;4.30;;;2.10;;
12970;SDS011;6550;48.650;8.774;2023-04-30T11:45:04;5.30;;;2.10;;
12970;SDS011;6550;48.650;8.774;2023-04-30T11:47:42;2.17;;;1.97;;
12970;SDS011;6550;48.650;8.774;2023-04-30T11:50:16;3.80;;;2.10;;
12970;SDS011;6550;48.650;8.774;2023-04-30T11:52:58;2.17;;;1.97;;
12970;SDS011;6550;48.650;8.774;2023-04-30T11:55:30;2.13;;;1.70;;
12970;SDS011;6550;48.650;8.774;2023-04-30T11:57:59;2.53;;;1.90;;
12970;SDS011;6550;48.650;8.774;2023-04-30T12:00:27;3.03;;;1.70;;
12970;SDS011;6550;48.650;8.774;2023-04-30T12:02:55;1.87;;;1.77;;
12970;SDS011;6550;48.650;8.774;2023-04-30T12:05:25;1.80;;;1.70;;
12970;SDS011;6550;48.650;8.774;2023-04-30T12:10:22;3.55;;;1.50;;
12970;SDS011;6550;48.650;8.774;2023-04-30T12:12:51;1.70;;;1.60;;
12970;SDS011;6550;48.650;8.774;2023-04-30T12:15:20;3.40;;;1.73;;
12970;SDS011;6550;48.650;8.774;2023-04-30T12:17:58;8.93;;;1.70;;
12970;SDS011;6550;48.650;8.774;2023-04-30T12:20:37;3.87;;;1.83;;
12970;SDS011;6550;48.650;8.774;2023-04-30T12:23:07;2.73;;;1.83;;
12970;SDS011;6550;48.650;8.774;2023-04-30T12:25:40;2.77;;;1.50;;
12970;SDS011;6550;48.650;8.774;2023-04-30T12:28:10;2.17;;;1.77;;
12970;SDS011;6550;48.650;8.774;2023-04-30T12:30:39;2.60;;;1.70;;
12970;SDS011;6550;48.650;8.774;2023-04-30T12:33:09;3.90;;;1.43;;
12970;SDS011;6550;48.650;8.774;2023-04-30T12:35:36;5.20;;;1.80;;
12970;SDS011;6550;48.650;8.774;2023-04-30T12:38:14;4.80;;;1.60;;
12970;SDS011;6550;48.650;8.774;2023-04-30T12:40:46;2.10;;;1.90;;
12970;SDS011;6550;48.650;8.774;2023-04-30T12:43:18;3.93;;;2.00;;
12970;SDS011;6550;48.650;8.774;2023-04-30T12:45:51;2.93;;;2.23;;
12970;SDS011;6550;48.650;8.774;2023-04-30T12:48:22;4.80;;;4.30;;
12970;SDS011;6550;48.650;8.774;2023-04-30T12:50:54;4.60;;;4.00;;
12970;SDS011;6550;48.650;8.774;2023-04-30T12:53:27;5.93;;;3.90;;
12970;SDS011;6550;48.650;8.774;2023-04-30T12:56:10;8.33;;;3.20;;
12970;SDS011;6550;48.650;8.774;2023-04-30T12:58:44;8.30;;;2.80;;
12970;SDS011;6550;48.650;8.774;2023-04-30T13:01:12;2.37;;;2.17;;
12970;SDS011;6550;48.650;8.774;2023-04-30T13:03:42;6.33;;;2.20;;
12970;SDS011;6550;48.650;8.774;2023-04-30T13:06:10;2.70;;;1.93;;
12970;SDS011;6550;48.650;8.774;2023-04-30T13:08:37;3.73;;;2.03;;
12970;SDS011;6550;48.650;8.774;2023-04-30T13:11:25;5.77;;;2.17;;
12970;SDS011;6550;48.650;8.774;2023-04-30T13:13:54;4.27;;;1.80;;
12970;SDS011;6550;48.650;8.774;2023-04-30T13:16:25;5.93;;;2.33;;
12970;SDS011;6550;48.650;8.774;2023-04-30T13:18:52;3.07;;;1.97;;
12970;SDS011;6550;48.650;8.774;2023-04-30T13:21:20;3.37;;;1.77;;
12970;SDS011;6550;48.650;8.774;2023-04-30T13:23:50;16.47;;;2.80;;
12970;SDS011;6550;48.650;8.774;2023-04-30T13:26:20;26.00;;;2.83;;
12970;SDS011;6550;48.650;8.774;2023-04-30T13:28:48;23.93;;;3.23;;
12970;SDS011;6550;48.650;8.774;2023-04-30T13:31:17;11.03;;;2.17;;
12970;SDS011;6550;48.650;8.774;2023-04-30T13:33:45;6.63;;;2.10;;
12970;SDS011;6550;48.650;8.774;2023-04-30T13:36:12;3.27;;;2.23;;
12970;SDS011;6550;48.650;8.774;2023-04-30T13:38:39;2.20;;;2.00;;
12970;SDS011;6550;48.650;8.774;2023-04-30T13:41:06;4.43;;;2.03;;
12970;SDS011;6550;48.650;8.774;2023-04-30T13:43:35;4.67;;;2.33;;
12970;SDS011;6550;48.650;8.774;2023-04-30T13:46:07;2.00;;;1.90;;
12970;SDS011;6550;48.650;8.774;2023-04-30T13:48:36;2.10;;;1.80;;
12970;SDS011;6550;48.650;8.774;2023-04-30T13:51:03;2.93;;;2.00;;
12970;SDS011;6550;48.650;8.774;2023-04-30T13:53:32;2.30;;;1.87;;
12970;SDS011;6550;48.650;8.774;2023-04-30T13:56:00;3.87;;;1.70;;
12970;SDS011;6550;48.650;8.774;2023-04-30T13:58:28;1.97;;;1.87;;
12970;SDS011;6550;48.650;8.774;2023-04-30T14:00:55;1.90;;;1.80;;
12970;SDS011;6550;48.650;8.774;2023-04-30T14:03:22;1.60;;;1.50;;
12970;SDS011;6550;48.650;8.774;2023-04-30T14:05:52;3.40;;;1.63;;
12970;SDS011;6550;48.650;8.774;2023-04-30T14:08:20;1.70;;;1.53;;
12970;SDS011;6550;48.650;8.774;2023-04-30T14:10:48;2.07;;;1.63;;
12970;SDS011;6550;48.650;8.774;2023-04-30T14:13:17;1.80;;;1.70;;
12970;SDS011;6550;48.650;8.774;2023-04-30T14:15:44;3.37;;;1.70;;
12970;SDS011;6550;48.650;8.774;2023-04-30T14:18:13;19.33;;;3.03;;
12970;SDS011;6550;48.650;8.774;2023-04-30T14:20:39;5.20;;;2.40;;
12970;SDS011;6550;48.650;8.774;2023-04-30T14:23:07;7.23;;;2.47;;
12970;SDS011;6550;48.650;8.774;2023-04-30T14:25:33;8.80;;;1.90;;
12970;SDS011;6550;48.650;8.774;2023-04-30T14:28:00;3.70;;;2.07;;
12970;SDS011;6550;48.650;8.774;2023-04-30T14:30:27;5.90;;;1.80;;
12970;SDS011;6550;48.650;8.774;2023-04-30T14:32:55;1.53;;;1.40;;
12970;SDS011;6550;48.650;8.774;2023-04-30T14:35:21;4.37;;;1.60;;
12970;SDS011;6550;48.650;8.774;2023-04-30T14:37:48;3.70;;;1.90;;
12970;SDS011;6550;48.650;8.774;2023-04-30T14:40:15;3.17;;;1.97;;
12970;SDS011;6550;48.650;8.774;2023-04-30T14:42:45;3.35;;;2.00;;
12970;SDS011;6550;48.650;8.774;2023-04-30T14:45:16;1.60;;;1.50;;
12970;SDS011;6550;48.650;8.774;2023-04-30T14:47:46;2.87;;;1.80;;
12970;SDS011;6550;48.650;8.774;2023-04-30T14:50:15;2.10;;;1.43;;
12970;SDS011;6550;48.650;8.774;2023-04-30T14:52:43;2.00;;;1.50;;
12970;SDS011;6550;48.650;8.774;2023-04-30T14:55:12;2.20;;;2.00;;
12970;SDS011;6550;48.650;8.774;2023-04-30T14:57:39;3.17;;;1.50;;
12970;SDS011;6550;48.650;8.774;2023-04-30T15:00:09;9.93;;;1.80;;
12970;SDS011;6550;48.650;8.774;2023-04-30T15:02:37;3.03;;;2.20;;
12970;SDS011;6550;48.650;8.774;2023-04-30T15:05:05;1.70;;;1.60;;
12970;SDS011;6550;48.650;8.774;2023-04-30T15:07:32;1.90;;;1.80;;
12970;SDS011;6550;48.650;8.774;2023-04-30T15:09:59;2.27;;;1.87;;
12970;SDS011;6550;48.650;8.774;2023-04-30T15:12:26;3.73;;;1.80;;
12970;SDS011;6550;48.650;8.774;2023-04-30T15:14:53;1.50;;;1.40;;
12970;SDS011;6550;48.650;8.774;2023-04-30T15:17:20;3.17;;;1.80;;
12970;SDS011;6550;48.650;8.774;2023-04-30T15:19:47;5.73;;;1.73;;
12970;SDS011;6550;48.650;8.774;2023-04-30T15:22:16;2.00;;;1.80;;
12970;SDS011;6550;48.650;8.774;2023-04-30T15:24:43;2.00;;;1.90;;
12970;SDS011;6550;48.650;8.774;2023-04-30T15:27:13;2.00;;;1.73;;
12970;SDS011;6550;48.650;8.774;2023-04-30T15:29:42;3.37;;;1.80;;
12970;SDS011;6550;48.650;8.774;2023-04-30T15:32:12;10.23;;;2.10;;
12970;SDS011;6550;48.650;8.774;2023-04-30T15:34:39;3.17;;;1.60;;
12970;SDS011;6550;48.650;8.774;2023-04-30T15:37:08;2.60;;;1.60;;